sensor_id;sensor_type;location;lat;lon;timestamp;pressure;altitude;pressure_sealevel;temperature;humidity
11395;BME280;5753;54.402;10.220;2023-05-02T00:00:23;101473.88;;;20.01;49.23
11395;BME280;5753;54.402;10.220;2023-05-02T00:02:49;101468.97;;;19.72;50.40
11395;BME280;5753;54.402;10.220;2023-05-02T00:05:15;101457.44;;;19.92;50.04
11395;BME280;5753;54.402;10.220;2023-05-02T00:07:41;101466.19;;;20.54;48.74
11395;BME280;5753;54.402;10.220;2023-05-02T00:10:08;101465.34;;;19.87;50.36
11395;BME280;5753;54.402;10.220;2023-05-02T00:12:34;101468.63;;;19.22;51.98
11395;BME280;5753;54.402;10.220;2023-05-02T00:15:00;101469.47;;;19.22;52.96
11395;BME280;5753;54.402;10.220;2023-05-02T00:17:27;101472.81;;;19.39;52.39
11395;BME280;5753;54.402;10.220;2023-05-02T00:19:53;101468.88;;;21.03;48.58
11395;BME280;5753;54.402;10.220;2023-05-02T00:22:19;101474.47;;;21.34;48.17
11395;BME280;5753;54.402;10.220;2023-05-02T00:24:45;101476.19;;;21.81;46.42
11395;BME280;5753;54.402;10.220;2023-05-02T00:27:11;101474.16;;;19.75;51.68
11395;BME280;5753;54.402;10.220;2023-05-02T00:29:38;101476.91;;;20.32;51.06
11395;BME280;5753;54.402;10.220;2023-05-02T00:32:05;101474.13;;;21.03;49.13
11395;BME280;5753;54.402;10.220;2023-05-02T00:34:31;101478.84;;;20.83;49.69
11395;BME280;5753;54.402;10.220;2023-05-02T00:36:57;101489.34;;;21.33;48.45
11395;BME280;5753;54.402;10.220;2023-05-02T00:39:24;101486.91;;;20.67;49.89
11395;BME280;5753;54.402;10.220;2023-05-02T00:41:59;101481.03;;;21.07;48.74
11395;BME280;5753;54.402;10.220;2023-05-02T00:44:25;101493.69;;;20.81;50.04
11395;BME280;5753;54.402;10.220;2023-05-02T00:46:51;101483.94;;;21.43;48.52
11395;BME280;5753;54.402;10.220;2023-05-02T00:49:18;101492.00;;;21.78;47.37
11395;BME280;5753;54.402;10.220;2023-05-02T00:51:45;101483.94;;;21.43;47.92
11395;BME280;5753;54.402;10.220;2023-05-02T00:54:12;101488.41;;;21.38;48.49
11395;BME280;5753;54.402;10.220;2023-05-02T00:56:38;101489.88;;;21.52;47.98
11395;BME280;5753;54.402;10.220;2023-05-02T00:59:07;101493.75;;;22.19;46.21
11395;BME280;5753;54.402;10.220;2023-05-02T01:09:56;101508.00;;;19.03;54.64
11395;BME280;5753;54.402;10.220;2023-05-02T01:15:14;101511.50;;;19.91;52.67
11395;BME280;5753;54.402;10.220;2023-05-02T01:17:43;101520.44;;;18.68;54.55
11395;BME280;5753;54.402;10.220;2023-05-02T01:20:12;101534.75;;;17.40;57.45
11395;BME280;5753;54.402;10.220;2023-05-02T01:22:40;101528.25;;;18.71;54.06
11395;BME280;5753;54.402;10.220;2023-05-02T01:25:25;101534.69;;;17.89;55.03
11395;BME280;5753;54.402;10.220;2023-05-02T01:30:45;101536.38;;;18.11;51.17
11395;BME280;5753;54.402;10.220;2023-05-02T01:33:16;101545.06;;;18.13;49.86
11395;BME280;5753;54.402;10.220;2023-05-02T01:35:43;101555.56;;;17.89;48.46
11395;BME280;5753;54.402;10.220;2023-05-02T01:38:13;101565.88;;;16.49;50.31
11395;BME280;5753;54.402;10.220;2023-05-02T01:40:44;101564.09;;;16.38;48.45
11395;BME280;5753;54.402;10.220;2023-05-02T01:43:15;101576.22;;;16.27;47.76
11395;BME280;5753;54.402;10.220;2023-05-02T01:45:46;101581.69;;;17.58;45.78
11395;BME280;5753;54.402;10.220;2023-05-02T01:48:14;101593.78;;;16.89;47.05
11395;BME280;5753;54.402;10.220;2023-05-02T01:50:44;101595.09;;;15.93;48.39
11395;BME280;5753;54.402;10.220;2023-05-02T01:53:12;101605.94;;;16.89;47.22
11395;BME280;5753;54.402;10.220;2023-05-02T01:55:42;101612.94;;;17.13;46.70
11395;BME280;5753;54.402;10.220;2023-05-02T01:58:09;101610.31;;;18.06;44.73
11395;BME280;5753;54.402;10.220;2023-05-02T02:00:36;101628.56;;;17.92;44.64
11395;BME280;5753;54.402;10.220;2023-05-02T02:03:05;101625.78;;;16.62;46.93
11395;BME280;5753;54.402;10.220;2023-05-02T02:05:34;101628.53;;;17.00;45.52
11395;BME280;5753;54.402;10.220;2023-05-02T02:08:02;101640.16;;;15.92;48.19
11395;BME280;5753;54.402;10.220;2023-05-02T02:10:35;101642.25;;;16.57;46.53
11395;BME280;5753;54.402;10.220;2023-05-02T02:13:36;101640.59;;;16.68;45.64
11395;BME280;5753;54.402;10.220;2023-05-02T02:16:04;101660.72;;;15.61;47.06
11395;BME280;5753;54.402;10.220;2023-05-02T02:18:36;101655.56;;;15.64;46.76
11395;BME280;5753;54.402;10.220;2023-05-02T02:21:07;101666.38;;;16.22;46.09
11395;BME280;5753;54.402;10.220;2023-05-02T02:23:34;101666.09;;;15.86;47.06
11395;BME280;5753;54.402;10.220;2023-05-02T02:26:02;101671.50;;;16.10;45.83
11395;BME280;5753;54.402;10.220;2023-05-02T02:28:29;101672.41;;;16.17;45.55
11395;BME280;5753;54.402;10.220;2023-05-02T02:30:55;101674.38;;;15.45;46.90
11395;BME280;5753;54.402;10.220;2023-05-02T02:33:23;101686.13;;;16.00;46.10
11395;BME280;5753;54.402;10.220;2023-05-02T02:41:37;101707.00;;;14.46;47.27
11395;BME280;5753;54.402;10.220;2023-05-02T02:47:20;101701.94;;;16.28;44.35
11395;BME280;5753;54.402;10.220;2023-05-02T02:50:19;101707.34;;;16.60;43.04
11395;BME280;5753;54.402;10.220;2023-05-02T02:53:07;101709.50;;;15.08;45.69
11395;BME280;5753;54.402;10.220;2023-05-02T02:55:39;101719.28;;;15.29;44.92
11395;BME280;5753;54.402;10.220;2023-05-02T02:58:38;101712.84;;;15.80;43.34
11395;BME280;5753;54.402;10.220;2023-05-02T03:01:13;101730.75;;;15.52;43.61
11395;BME280;5753;54.402;10.220;2023-05-02T03:03:41;101733.56;;;14.93;43.13
11395;BME280;5753;54.402;10.220;2023-05-02T03:06:08;101745.13;;;14.53;43.90
11395;BME280;5753;54.402;10.220;2023-05-02T03:08:42;101744.19;;;14.46;44.28
11395;BME280;5753;54.402;10.220;2023-05-02T03:11:08;101743.38;;;14.52;44.11
11395;BME280;5753;54.402;10.220;2023-05-02T03:13:35;101753.75;;;14.52;44.33
11395;BME280;5753;54.402;10.220;2023-05-02T03:18:59;101765.22;;;14.66;43.73
11395;BME280;5753;54.402;10.220;2023-05-02T03:21:25;101768.53;;;14.58;42.85
11395;BME280;5753;54.402;10.220;2023-05-02T03:23:51;101765.91;;;14.55;42.86
11395;BME280;5753;54.402;10.220;2023-05-02T03:26:17;101771.03;;;13.99;44.66
11395;BME280;5753;54.402;10.220;2023-05-02T03:28:43;101775.34;;;15.13;42.45
11395;BME280;5753;54.402;10.220;2023-05-02T03:31:12;101778.72;;;14.44;43.14
11395;BME280;5753;54.402;10.220;2023-05-02T03:33:39;101788.16;;;14.42;43.11
11395;BME280;5753;54.402;10.220;2023-05-02T03:36:05;101781.25;;;15.01;41.38
11395;BME280;5753;54.402;10.220;2023-05-02T03:38:32;101781.56;;;14.61;42.02
11395;BME280;5753;54.402;10.220;2023-05-02T03:40:58;101783.75;;;14.36;43.27
11395;BME280;5753;54.402;10.220;2023-05-02T03:43:24;101785.00;;;14.07;43.56
11395;BME280;5753;54.402;10.220;2023-05-02T03:45:50;101783.63;;;14.27;42.97
11395;BME280;5753;54.402;10.220;2023-05-02T03:48:16;101783.09;;;14.48;42.56
11395;BME280;5753;54.402;10.220;2023-05-02T03:50:42;101790.19;;;14.07;43.21
11395;BME280;5753;54.402;10.220;2023-05-02T03:53:09;101789.50;;;14.70;42.19
11395;BME280;5753;54.402;10.220;2023-05-02T03:55:43;101791.88;;;15.20;40.91
11395;BME280;5753;54.402;10.220;2023-05-02T03:58:10;101802.72;;;14.88;41.96
11395;BME280;5753;54.402;10.220;2023-05-02T04:00:37;101804.97;;;15.29;40.64
11395;BME280;5753;54.402;10.220;2023-05-02T04:03:03;101802.09;;;15.77;39.64
11395;BME280;5753;54.402;10.220;2023-05-02T04:05:29;101810.59;;;15.62;40.33
11395;BME280;5753;54.402;10.220;2023-05-02T04:07:56;101818.56;;;15.78;39.69
11395;BME280;5753;54.402;10.220;2023-05-02T04:10:22;101815.78;;;14.96;41.32
11395;BME280;5753;54.402;10.220;2023-05-02T04:12:48;101817.25;;;14.74;41.98
11395;BME280;5753;54.402;10.220;2023-05-02T04:15:15;101818.16;;;15.47;40.22
11395;BME280;5753;54.402;10.220;2023-05-02T04:17:41;101821.00;;;14.97;41.23
11395;BME280;5753;54.402;10.220;2023-05-02T04:20:07;101821.50;;;14.69;41.26
11395;BME280;5753;54.402;10.220;2023-05-02T04:22:33;101826.09;;;14.88;41.28
11395;BME280;5753;54.402;10.220;2023-05-02T04:24:59;101822.16;;;15.93;39.70
11395;BME280;5753;54.402;10.220;2023-05-02T04:27:26;101829.50;;;15.52;40.56
11395;BME280;5753;54.402;10.220;2023-05-02T04:29:52;101837.03;;;16.08;39.45
11395;BME280;5753;54.402;10.220;2023-05-02T04:32:18;101839.81;;;16.26;39.10
11395;BME280;5753;54.402;10.220;2023-05-02T04:34:44;101845.06;;;14.84;41.43
11395;BME280;5753;54.402;10.220;2023-05-02T04:37:11;101849.25;;;14.74;41.31
11395;BME280;5753;54.402;10.220;2023-05-02T04:39:37;101848.84;;;14.02;42.18
11395;BME280;5753;54.402;10.220;2023-05-02T04:42:03;101854.13;;;15.83;39.56
11395;BME280;5753;54.402;10.220;2023-05-02T04:44:29;101856.53;;;15.63;39.57
11395;BME280;5753;54.402;10.220;2023-05-02T04:46:56;101859.59;;;15.35;39.87
11395;BME280;5753;54.402;10.220;2023-05-02T04:49:22;101863.50;;;15.67;39.76
11395;BME280;5753;54.402;10.220;2023-05-02T04:51:48;101868.06;;;15.19;39.54
11395;BME280;5753;54.402;10.220;2023-05-02T04:54:14;101861.78;;;15.69;39.77
11395;BME280;5753;54.402;10.220;2023-05-02T04:56:40;101867.22;;;16.91;38.03
11395;BME280;5753;54.402;10.220;2023-05-02T04:59:07;101881.69;;;15.04;40.34
11395;BME280;5753;54.402;10.220;2023-05-02T05:01:33;101877.31;;;16.54;38.28
11395;BME280;5753;54.402;10.220;2023-05-02T05:03:59;101894.84;;;16.69;37.28
11395;BME280;5753;54.402;10.220;2023-05-02T05:06:25;101887.97;;;16.77;37.27
11395;BME280;5753;54.402;10.220;2023-05-02T05:08:51;101887.16;;;16.84;37.14
11395;BME280;5753;54.402;10.220;2023-05-02T05:11:17;101903.22;;;16.37;37.98
11395;BME280;5753;54.402;10.220;2023-05-02T05:13:44;101913.00;;;15.15;39.47
11395;BME280;5753;54.402;10.220;2023-05-02T05:16:10;101911.44;;;15.26;39.09
11395;BME280;5753;54.402;10.220;2023-05-02T05:18:36;101923.56;;;15.93;38.36
11395;BME280;5753;54.402;10.220;2023-05-02T05:21:06;101918.78;;;16.31;37.26
11395;BME280;5753;54.402;10.220;2023-05-02T05:23:33;101915.44;;;16.48;36.47
11395;BME280;5753;54.402;10.220;2023-05-02T05:26:14;101925.00;;;15.06;38.72
11395;BME280;5753;54.402;10.220;2023-05-02T05:28:41;101917.88;;;16.29;36.32
11395;BME280;5753;54.402;10.220;2023-05-02T05:31:08;101921.25;;;16.16;36.77
11395;BME280;5753;54.402;10.220;2023-05-02T05:33:36;101929.41;;;14.58;39.60
11395;BME280;5753;54.402;10.220;2023-05-02T05:36:09;101934.16;;;15.42;39.06
11395;BME280;5753;54.402;10.220;2023-05-02T05:38:36;101924.06;;;16.41;36.33
11395;BME280;5753;54.402;10.220;2023-05-02T05:41:03;101927.03;;;16.77;35.84
11395;BME280;5753;54.402;10.220;2023-05-02T05:43:33;101929.25;;;17.54;35.74
11395;BME280;5753;54.402;10.220;2023-05-02T05:45:59;101931.13;;;16.54;36.08
11395;BME280;5753;54.402;10.220;2023-05-02T05:48:26;101924.69;;;17.17;35.38
11395;BME280;5753;54.402;10.220;2023-05-02T05:50:52;101931.63;;;17.12;34.98
11395;BME280;5753;54.402;10.220;2023-05-02T05:53:19;101950.59;;;15.41;36.53
11395;BME280;5753;54.402;10.220;2023-05-02T05:55:45;101948.06;;;16.12;36.32
11395;BME280;5753;54.402;10.220;2023-05-02T05:58:11;101954.75;;;15.28;38.22
11395;BME280;5753;54.402;10.220;2023-05-02T06:00:38;101949.75;;;15.42;37.43
11395;BME280;5753;54.402;10.220;2023-05-02T06:03:05;101956.25;;;15.12;38.07
11395;BME280;5753;54.402;10.220;2023-05-02T06:05:34;101957.53;;;15.40;38.22
11395;BME280;5753;54.402;10.220;2023-05-02T06:08:00;101958.50;;;14.91;37.54
11395;BME280;5753;54.402;10.220;2023-05-02T06:10:26;101970.50;;;16.04;36.98
11395;BME280;5753;54.402;10.220;2023-05-02T06:12:53;101973.81;;;15.29;36.68
11395;BME280;5753;54.402;10.220;2023-05-02T06:15:19;101975.56;;;15.92;37.89
11395;BME280;5753;54.402;10.220;2023-05-02T06:17:45;101982.50;;;15.31;38.04
11395;BME280;5753;54.402;10.220;2023-05-02T06:20:11;101982.97;;;15.61;37.53
11395;BME280;5753;54.402;10.220;2023-05-02T06:22:37;101987.69;;;15.31;37.25
11395;BME280;5753;54.402;10.220;2023-05-02T06:25:04;101972.97;;;15.92;36.33
11395;BME280;5753;54.402;10.220;2023-05-02T06:27:31;101993.16;;;16.11;36.40
11395;BME280;5753;54.402;10.220;2023-05-02T06:29:57;101996.47;;;16.02;36.38
11395;BME280;5753;54.402;10.220;2023-05-02T06:32:23;101999.44;;;16.33;35.82
11395;BME280;5753;54.402;10.220;2023-05-02T06:34:49;102001.97;;;17.15;34.57
11395;BME280;5753;54.402;10.220;2023-05-02T06:37:15;101997.16;;;17.71;34.09
11395;BME280;5753;54.402;10.220;2023-05-02T06:39:41;102010.25;;;17.86;34.41
11395;BME280;5753;54.402;10.220;2023-05-02T06:42:07;102002.09;;;17.30;34.29
11395;BME280;5753;54.402;10.220;2023-05-02T06:44:33;102011.41;;;18.63;33.25
11395;BME280;5753;54.402;10.220;2023-05-02T06:46:59;102010.72;;;15.62;35.38
11395;BME280;5753;54.402;10.220;2023-05-02T06:49:26;102015.84;;;17.09;34.88
11395;BME280;5753;54.402;10.220;2023-05-02T06:51:52;102028.41;;;16.65;34.82
11395;BME280;5753;54.402;10.220;2023-05-02T06:54:18;102029.91;;;16.43;35.17
11395;BME280;5753;54.402;10.220;2023-05-02T06:56:46;102044.13;;;16.00;36.06
11395;BME280;5753;54.402;10.220;2023-05-02T06:59:12;102038.97;;;17.91;33.72
11395;BME280;5753;54.402;10.220;2023-05-02T07:01:38;102039.53;;;17.46;32.86
11395;BME280;5753;54.402;10.220;2023-05-02T07:04:04;102046.84;;;17.99;32.77
11395;BME280;5753;54.402;10.220;2023-05-02T07:06:31;102051.91;;;17.73;32.36
11395;BME280;5753;54.402;10.220;2023-05-02T07:08:57;102062.38;;;16.74;34.83
11395;BME280;5753;54.402;10.220;2023-05-02T07:11:23;102059.34;;;17.21;33.60
11395;BME280;5753;54.402;10.220;2023-05-02T07:13:50;102062.25;;;17.59;33.28
11395;BME280;5753;54.402;10.220;2023-05-02T07:16:16;102061.75;;;18.29;32.48
11395;BME280;5753;54.402;10.220;2023-05-02T07:18:42;102066.28;;;17.20;33.46
11395;BME280;5753;54.402;10.220;2023-05-02T07:21:11;102073.53;;;17.56;33.58
11395;BME280;5753;54.402;10.220;2023-05-02T07:23:37;102073.50;;;17.50;32.90
11395;BME280;5753;54.402;10.220;2023-05-02T07:26:03;102063.47;;;18.17;31.57
11395;BME280;5753;54.402;10.220;2023-05-02T07:28:32;102075.03;;;19.17;30.83
11395;BME280;5753;54.402;10.220;2023-05-02T07:30:59;102079.41;;;19.42;30.10
11395;BME280;5753;54.402;10.220;2023-05-02T07:33:25;102080.06;;;18.41;31.99
11395;BME280;5753;54.402;10.220;2023-05-02T07:35:51;102083.53;;;18.40;31.69
11395;BME280;5753;54.402;10.220;2023-05-02T07:38:17;102086.56;;;17.59;31.22
11395;BME280;5753;54.402;10.220;2023-05-02T07:40:44;102089.84;;;19.07;30.72
11395;BME280;5753;54.402;10.220;2023-05-02T07:43:12;102095.06;;;19.64;29.76
11395;BME280;5753;54.402;10.220;2023-05-02T07:45:38;102095.94;;;19.47;30.54
11395;BME280;5753;54.402;10.220;2023-05-02T07:48:04;102102.50;;;17.98;32.24
11395;BME280;5753;54.402;10.220;2023-05-02T07:50:30;102099.63;;;17.62;32.84
11395;BME280;5753;54.402;10.220;2023-05-02T07:52:56;102104.81;;;17.56;32.51
11395;BME280;5753;54.402;10.220;2023-05-02T07:55:23;102101.97;;;18.85;31.29
11395;BME280;5753;54.402;10.220;2023-05-02T07:57:51;102099.41;;;19.01;31.39
11395;BME280;5753;54.402;10.220;2023-05-02T08:00:18;102105.50;;;18.97;30.71
11395;BME280;5753;54.402;10.220;2023-05-02T08:02:44;102096.81;;;19.11;30.86
11395;BME280;5753;54.402;10.220;2023-05-02T08:05:10;102100.28;;;19.88;30.74
11395;BME280;5753;54.402;10.220;2023-05-02T08:07:37;102093.19;;;20.15;29.62
11395;BME280;5753;54.402;10.220;2023-05-02T08:10:04;102103.78;;;19.50;30.74
11395;BME280;5753;54.402;10.220;2023-05-02T08:12:30;102118.84;;;17.74;31.73
11395;BME280;5753;54.402;10.220;2023-05-02T08:14:56;102126.25;;;18.57;31.40
11395;BME280;5753;54.402;10.220;2023-05-02T08:17:22;102129.94;;;19.44;30.73
11395;BME280;5753;54.402;10.220;2023-05-02T08:19:48;102121.22;;;19.42;31.86
11395;BME280;5753;54.402;10.220;2023-05-02T08:22:15;102128.06;;;18.66;32.02
11395;BME280;5753;54.402;10.220;2023-05-02T08:24:41;102122.88;;;18.88;30.81
11395;BME280;5753;54.402;10.220;2023-05-02T08:27:07;102119.44;;;19.99;29.65
11395;BME280;5753;54.402;10.220;2023-05-02T08:29:33;102124.56;;;21.71;28.09
11395;BME280;5753;54.402;10.220;2023-05-02T08:31:59;102135.66;;;20.94;28.20
11395;BME280;5753;54.402;10.220;2023-05-02T08:34:25;102135.09;;;20.15;30.09
11395;BME280;5753;54.402;10.220;2023-05-02T08:36:51;102144.63;;;20.29;29.06
11395;BME280;5753;54.402;10.220;2023-05-02T08:39:18;102144.78;;;19.70;30.17
11395;BME280;5753;54.402;10.220;2023-05-02T08:41:44;102156.13;;;19.64;29.68
11395;BME280;5753;54.402;10.220;2023-05-02T08:44:11;102153.19;;;20.83;28.73
11395;BME280;5753;54.402;10.220;2023-05-02T08:46:40;102152.63;;;19.58;29.44
11395;BME280;5753;54.402;10.220;2023-05-02T08:49:09;102179.47;;;18.79;30.85
11395;BME280;5753;54.402;10.220;2023-05-02T08:51:36;102161.72;;;18.11;31.19
11395;BME280;5753;54.402;10.220;2023-05-02T08:54:02;102168.22;;;18.92;30.88
11395;BME280;5753;54.402;10.220;2023-05-02T08:56:29;102164.75;;;20.17;29.18
11395;BME280;5753;54.402;10.220;2023-05-02T08:58:55;102173.31;;;20.70;27.73
11395;BME280;5753;54.402;10.220;2023-05-02T09:01:29;102182.25;;;19.99;28.93
11395;BME280;5753;54.402;10.220;2023-05-02T09:03:55;102183.50;;;21.27;27.73
11395;BME280;5753;54.402;10.220;2023-05-02T09:06:25;102184.00;;;19.47;29.77
11395;BME280;5753;54.402;10.220;2023-05-02T09:08:51;102182.78;;;21.02;29.79
11395;BME280;5753;54.402;10.220;2023-05-02T09:11:18;102185.75;;;19.59;29.38
11395;BME280;5753;54.402;10.220;2023-05-02T09:13:45;102186.41;;;18.71;31.05
11395;BME280;5753;54.402;10.220;2023-05-02T09:18:50;102196.16;;;19.34;31.00
11395;BME280;5753;54.402;10.220;2023-05-02T09:21:45;102204.88;;;20.37;28.32
11395;BME280;5753;54.402;10.220;2023-05-02T09:24:16;102199.94;;;21.55;27.04
11395;BME280;5753;54.402;10.220;2023-05-02T09:27:01;102206.34;;;22.98;25.99
11395;BME280;5753;54.402;10.220;2023-05-02T09:29:28;102208.38;;;22.75;26.38
11395;BME280;5753;54.402;10.220;2023-05-02T09:32:02;102225.38;;;22.45;26.51
11395;BME280;5753;54.402;10.220;2023-05-02T09:34:29;102210.13;;;20.34;28.00
11395;BME280;5753;54.402;10.220;2023-05-02T09:36:56;102220.94;;;21.53;27.00
11395;BME280;5753;54.402;10.220;2023-05-02T09:39:24;102223.84;;;22.25;26.72
11395;BME280;5753;54.402;10.220;2023-05-02T09:41:51;102221.91;;;21.42;27.16
11395;BME280;5753;54.402;10.220;2023-05-02T09:44:22;102212.34;;;22.34;26.09
11395;BME280;5753;54.402;10.220;2023-05-02T09:46:50;102212.88;;;21.73;26.24
11395;BME280;5753;54.402;10.220;2023-05-02T09:49:18;102218.66;;;23.56;26.11
11395;BME280;5753;54.402;10.220;2023-05-02T09:51:45;102221.47;;;20.16;28.20
11395;BME280;5753;54.402;10.220;2023-05-02T09:54:12;102220.53;;;22.02;25.50
11395;BME280;5753;54.402;10.220;2023-05-02T09:56:54;102218.81;;;22.84;25.54
11395;BME280;5753;54.402;10.220;2023-05-02T09:59:21;102225.59;;;22.26;25.90
11395;BME280;5753;54.402;10.220;2023-05-02T10:02:04;102230.19;;;23.46;25.94
11395;BME280;5753;54.402;10.220;2023-05-02T10:04:33;102235.63;;;22.65;26.00
11395;BME280;5753;54.402;10.220;2023-05-02T10:06:59;102232.19;;;21.69;27.10
11395;BME280;5753;54.402;10.220;2023-05-02T10:09:26;102235.31;;;20.76;28.27
11395;BME280;5753;54.402;10.220;2023-05-02T10:11:55;102251.94;;;22.14;27.21
11395;BME280;5753;54.402;10.220;2023-05-02T10:14:22;102254.78;;;21.88;26.37
11395;BME280;5753;54.402;10.220;2023-05-02T10:19:32;102252.50;;;22.45;24.71
11395;BME280;5753;54.402;10.220;2023-05-02T10:22:04;102255.41;;;22.16;25.60
11395;BME280;5753;54.402;10.220;2023-05-02T10:24:32;102255.09;;;22.48;25.14
11395;BME280;5753;54.402;10.220;2023-05-02T10:26:58;102247.19;;;23.25;24.27
11395;BME280;5753;54.402;10.220;2023-05-02T10:29:28;102257.16;;;22.17;25.16
11395;BME280;5753;54.402;10.220;2023-05-02T10:31:57;102258.22;;;21.96;25.94
11395;BME280;5753;54.402;10.220;2023-05-02T10:34:27;102258.03;;;23.65;25.45
11395;BME280;5753;54.402;10.220;2023-05-02T10:36:54;102261.06;;;25.29;22.86
11395;BME280;5753;54.402;10.220;2023-05-02T10:39:21;102254.13;;;24.83;22.99
11395;BME280;5753;54.402;10.220;2023-05-02T10:41:50;102271.97;;;23.70;25.52
11395;BME280;5753;54.402;10.220;2023-05-02T10:46:58;102275.31;;;21.27;26.44
11395;BME280;5753;54.402;10.220;2023-05-02T10:49:24;102284.63;;;23.44;25.96
11395;BME280;5753;54.402;10.220;2023-05-02T10:51:52;102291.13;;;23.15;24.51
11395;BME280;5753;54.402;10.220;2023-05-02T10:54:19;102289.59;;;22.15;25.34
11395;BME280;5753;54.402;10.220;2023-05-02T10:57:05;102293.19;;;22.92;24.22
11395;BME280;5753;54.402;10.220;2023-05-02T10:59:38;102288.78;;;22.94;23.43
11395;BME280;5753;54.402;10.220;2023-05-02T11:02:45;102286.75;;;23.79;23.37
11395;BME280;5753;54.402;10.220;2023-05-02T11:05:05;102289.72;;;23.53;23.33
11395;BME280;5753;54.402;10.220;2023-05-02T11:07:33;102293.59;;;23.89;23.14
11395;BME280;5753;54.402;10.220;2023-05-02T11:12:50;102284.44;;;25.05;22.28
11395;BME280;5753;54.402;10.220;2023-05-02T11:18:02;102284.66;;;24.50;22.39
11395;BME280;5753;54.402;10.220;2023-05-02T11:20:29;102277.13;;;25.94;22.90
11395;BME280;5753;54.402;10.220;2023-05-02T11:22:58;102286.28;;;25.02;22.02
11395;BME280;5753;54.402;10.220;2023-05-02T11:27:55;102284.34;;;25.12;21.13
11395;BME280;5753;54.402;10.220;2023-05-02T11:30:41;102287.53;;;24.83;21.43
11395;BME280;5753;54.402;10.220;2023-05-02T11:35:35;102289.09;;;24.91;22.90
11395;BME280;5753;54.402;10.220;2023-05-02T11:38:10;102297.38;;;24.28;23.03
11395;BME280;5753;54.402;10.220;2023-05-02T11:40:37;102286.56;;;23.31;23.33
11395;BME280;5753;54.402;10.220;2023-05-02T11:43:18;102288.66;;;23.71;23.79
11395;BME280;5753;54.402;10.220;2023-05-02T11:45:44;102304.88;;;24.94;22.91
11395;BME280;5753;54.402;10.220;2023-05-02T11:48:12;102306.84;;;24.38;23.69
11395;BME280;5753;54.402;10.220;2023-05-02T11:53:13;102314.16;;;22.98;24.64
11395;BME280;5753;54.402;10.220;2023-05-02T11:55:47;102320.97;;;24.82;23.29
11395;BME280;5753;54.402;10.220;2023-05-02T11:58:15;102319.44;;;24.70;22.00
11395;BME280;5753;54.402;10.220;2023-05-02T12:00:42;102314.44;;;25.41;21.80
11395;BME280;5753;54.402;10.220;2023-05-02T12:03:19;102321.94;;;24.30;22.81
11395;BME280;5753;54.402;10.220;2023-05-02T12:05:46;102326.63;;;25.47;21.36
11395;BME280;5753;54.402;10.220;2023-05-02T12:08:20;102325.13;;;24.47;22.47
11395;BME280;5753;54.402;10.220;2023-05-02T12:10:47;102331.56;;;24.79;23.13
11395;BME280;5753;54.402;10.220;2023-05-02T12:13:13;102330.69;;;26.70;21.93
11395;BME280;5753;54.402;10.220;2023-05-02T12:15:40;102327.94;;;27.06;20.01
11395;BME280;5753;54.402;10.220;2023-05-02T12:18:07;102337.91;;;25.94;21.22
11395;BME280;5753;54.402;10.220;2023-05-02T12:20:34;102346.81;;;26.61;19.43
11395;BME280;5753;54.402;10.220;2023-05-02T12:23:00;102343.19;;;27.27;19.97
11395;BME280;5753;54.402;10.220;2023-05-02T12:25:26;102344.00;;;27.86;20.16
11395;BME280;5753;54.402;10.220;2023-05-02T12:28:02;102354.28;;;24.86;22.94
11395;BME280;5753;54.402;10.220;2023-05-02T12:30:29;102350.81;;;24.84;23.00
11395;BME280;5753;54.402;10.220;2023-05-02T12:32:59;102351.56;;;26.47;20.58
11395;BME280;5753;54.402;10.220;2023-05-02T12:35:27;102348.03;;;28.51;18.47
11395;BME280;5753;54.402;10.220;2023-05-02T12:37:54;102351.66;;;29.22;18.52
11395;BME280;5753;54.402;10.220;2023-05-02T12:40:21;102348.41;;;30.87;16.48
11395;BME280;5753;54.402;10.220;2023-05-02T12:43:01;102355.34;;;30.08;17.39
11395;BME280;5753;54.402;10.220;2023-05-02T12:45:33;102361.22;;;29.51;18.20
11395;BME280;5753;54.402;10.220;2023-05-02T12:50:44;102374.75;;;24.21;23.15
11395;BME280;5753;54.402;10.220;2023-05-02T12:53:10;102375.03;;;24.03;24.25
11395;BME280;5753;54.402;10.220;2023-05-02T12:55:38;102382.56;;;25.26;22.70
11395;BME280;5753;54.402;10.220;2023-05-02T12:58:06;102374.03;;;27.28;20.78
11395;BME280;5753;54.402;10.220;2023-05-02T13:00:34;102371.31;;;30.70;18.51
11395;BME280;5753;54.402;10.220;2023-05-02T13:03:01;102365.03;;;27.93;18.71
11395;BME280;5753;54.402;10.220;2023-05-02T13:05:27;102366.72;;;30.33;18.05
11395;BME280;5753;54.402;10.220;2023-05-02T13:07:53;102368.41;;;29.00;18.88
11395;BME280;5753;54.402;10.220;2023-05-02T13:10:21;102367.41;;;27.13;20.24
11395;BME280;5753;54.402;10.220;2023-05-02T13:12:48;102363.78;;;26.52;21.17
11395;BME280;5753;54.402;10.220;2023-05-02T13:15:14;102370.03;;;27.74;21.18
11395;BME280;5753;54.402;10.220;2023-05-02T13:17:40;102378.97;;;28.26;20.51
11395;BME280;5753;54.402;10.220;2023-05-02T13:20:07;102370.34;;;28.70;19.61
11395;BME280;5753;54.402;10.220;2023-05-02T13:22:34;102377.69;;;26.60;20.19
11395;BME280;5753;54.402;10.220;2023-05-02T13:25:05;102380.03;;;26.00;21.21
11395;BME280;5753;54.402;10.220;2023-05-02T13:27:31;102382.97;;;24.55;23.04
11395;BME280;5753;54.402;10.220;2023-05-02T13:29:59;102378.16;;;26.75;20.48
11395;BME280;5753;54.402;10.220;2023-05-02T13:32:26;102366.44;;;31.19;17.19
11395;BME280;5753;54.402;10.220;2023-05-02T13:34:54;102380.69;;;32.30;16.39
11395;BME280;5753;54.402;10.220;2023-05-02T13:37:20;102380.59;;;29.06;18.05
11395;BME280;5753;54.402;10.220;2023-05-02T13:39:46;102385.31;;;26.00;20.88
11395;BME280;5753;54.402;10.220;2023-05-02T13:42:13;102383.72;;;28.94;18.72
11395;BME280;5753;54.402;10.220;2023-05-02T13:44:39;102386.41;;;29.15;17.45